Time;durP1;ratioP1;P1;durP2;ratioP2;P2;SDS_P1;SDS_P2;PMS_P1;PMS_P2;Temp;Humidity;BMP_temperature;BMP_pressure;BME280_temperature;BME280_humidity;BME280_pressure;Samples;Min_cycle;Max_cycle;Signal;HPM_P1;HPM_P2
2022/01/13 00:00:43;;;;;;;30.73;24.67;;;1.60;99.90;;;;;;5048132;28;20400;-61
2022/01/13 00:03:08;;;;;;;37.33;27.17;;;1.60;99.90;;;;;;5036940;28;20178;-61
2022/01/13 00:05:34;;;;;;;33.50;26.53;;;1.70;99.90;;;;;;5049306;28;20225;-61
2022/01/13 00:08:00;;;;;;;31.23;25.97;;;1.60;99.90;;;;;;5050309;28;20170;-61
2022/01/13 00:10:26;;;;;;;34.30;26.77;;;1.70;99.90;;;;;;5050275;28;20643;-62
2022/01/13 00:13:04;;;;;;;36.03;27.00;;;1.80;99.90;;;;;;5049882;28;20163;-61
2022/01/13 00:18:35;;;;;;;37.97;28.00;;;1.90;99.90;;;;;;5048846;28;20405;-61
2022/01/13 00:21:38;;;;;;;36.87;28.07;;;1.60;99.90;;;;;;5050060;28;20386;-62
2022/01/13 00:23:55;;;;;;;41.17;29.40;;;1.60;99.90;;;;;;5048777;28;20507;-61
2022/01/13 00:26:25;;;;;;;37.90;28.10;;;1.60;99.90;;;;;;5045967;28;20871;-62
2022/01/13 00:28:53;;;;;;;33.77;26.77;;;1.50;99.90;;;;;;5050152;28;20377;-62
2022/01/13 00:31:25;;;;;;;37.10;29.10;;;1.50;99.90;;;;;;5050053;28;20827;-62
2022/01/13 00:33:54;;;;;;;37.23;28.30;;;1.60;99.90;;;;;;5049503;28;21019;-62
2022/01/13 00:36:32;;;;;;;37.20;27.97;;;1.50;99.90;;;;;;5049681;28;20440;-62
2022/01/13 00:38:58;;;;;;;35.30;26.67;;;1.60;99.90;;;;;;5050027;28;20396;-60
2022/01/13 00:41:27;;;;;;;35.57;27.87;;;1.50;99.90;;;;;;5049627;28;20465;-62
2022/01/13 00:43:54;;;;;;;35.13;28.30;;;1.40;99.90;;;;;;5049836;28;20421;-62
2022/01/13 00:46:25;;;;;;;32.10;25.97;;;1.70;99.90;;;;;;5049747;28;20448;-62
2022/01/13 00:48:53;;;;;;;31.63;24.30;;;1.90;99.90;;;;;;5048228;28;20418;-62
2022/01/13 00:51:20;;;;;;;35.93;27.40;;;2.10;99.90;;;;;;5049761;28;20804;-62
2022/01/13 00:53:47;;;;;;;31.97;25.90;;;2.20;99.90;;;;;;5049275;28;20456;-62
2022/01/13 00:56:12;;;;;;;37.93;28.90;;;2.20;99.90;;;;;;5048281;28;20532;-62
2022/01/13 00:58:38;;;;;;;38.13;29.47;;;2.20;99.90;;;;;;5049580;28;20436;-62
2022/01/13 01:01:06;;;;;;;40.07;30.47;;;2.10;99.90;;;;;;5049297;28;20409;-62
2022/01/13 01:03:33;;;;;;;35.23;29.87;;;1.80;99.90;;;;;;5048587;28;20179;-62
2022/01/13 01:06:01;;;;;;;37.03;28.70;;;1.70;99.90;;;;;;5040852;28;20833;-62
2022/01/13 01:08:27;;;;;;;42.57;32.30;;;1.80;99.90;;;;;;5036192;28;20410;-62
2022/01/13 01:10:54;;;;;;;36.47;28.80;;;1.90;99.90;;;;;;5035501;28;20508;-61
2022/01/13 01:13:25;;;;;;;34.93;28.93;;;2.00;99.90;;;;;;5035647;28;20934;-62
2022/01/13 01:15:54;;;;;;;42.47;29.53;;;2.00;99.90;;;;;;5035961;28;20451;-62
2022/01/13 01:21:17;;;;;;;32.43;23.87;;;2.10;99.90;;;;;;5036233;28;20386;-61
2022/01/13 01:31:48;;;;;;;35.93;28.33;;;2.10;99.90;;;;;;5049002;23;20494;-59
2022/01/13 01:36:51;;;;;;;37.97;28.73;;;1.90;99.90;;;;;;5014732;28;20506;-60
2022/01/13 01:39:17;;;;;;;31.63;24.67;;;1.90;99.90;;;;;;5015763;28;20414;-59
2022/01/13 01:41:45;;;;;;;34.43;26.60;;;1.90;99.90;;;;;;5014234;28;20430;-60
2022/01/13 01:44:14;;;;;;;37.57;30.20;;;2.00;99.90;;;;;;5015093;28;20180;-60
2022/01/13 01:46:45;;;;;;;32.47;26.80;;;2.00;99.90;;;;;;5014441;28;20457;-60
2022/01/13 01:49:22;;;;;;;35.50;27.83;;;2.10;99.90;;;;;;5015523;28;20492;-60
2022/01/13 01:51:51;;;;;;;32.20;25.60;;;2.10;99.90;;;;;;5013887;28;20430;-59
2022/01/13 01:54:16;;;;;;;40.33;30.93;;;2.10;99.90;;;;;;5014090;28;20454;-60
2022/01/13 01:56:43;;;;;;;36.43;27.70;;;2.10;99.90;;;;;;5014808;28;20410;-60
2022/01/13 01:59:13;;;;;;;33.10;27.07;;;2.00;99.90;;;;;;5015465;28;20178;-60
2022/01/13 02:01:39;;;;;;;34.53;26.53;;;2.00;99.90;;;;;;5014177;28;20469;-60
2022/01/13 02:04:05;;;;;;;37.07;27.87;;;2.00;99.90;;;;;;5015312;28;20487;-60
2022/01/13 02:06:31;;;;;;;36.67;29.10;;;1.90;99.90;;;;;;5013653;28;20422;-60
2022/01/13 02:08:56;;;;;;;37.20;29.30;;;1.90;99.90;;;;;;5014963;28;20440;-60
2022/01/13 02:11:25;;;;;;;35.57;28.50;;;1.90;99.90;;;;;;5012181;28;20219;-60
2022/01/13 02:13:54;;;;;;;35.67;28.50;;;1.80;99.90;;;;;;5015099;28;20291;-60
2022/01/13 02:16:43;;;;;;;35.83;28.63;;;1.90;99.90;;;;;;5014659;28;20441;-60
2022/01/13 02:19:09;;;;;;;37.80;29.30;;;1.90;99.90;;;;;;5013710;28;20761;-58
2022/01/13 02:21:35;;;;;;;35.77;29.60;;;1.80;99.90;;;;;;5015069;28;20473;-60
2022/01/13 02:24:01;;;;;;;32.70;26.20;;;1.80;99.90;;;;;;4994859;28;20415;-60
2022/01/13 02:26:28;;;;;;;35.60;27.57;;;2.00;99.90;;;;;;4995318;28;20176;-59
2022/01/13 02:28:54;;;;;;;34.77;26.77;;;2.00;99.90;;;;;;4994990;28;20238;-60
2022/01/13 02:31:21;;;;;;;35.73;28.80;;;2.00;99.90;;;;;;4994521;28;20458;-60
2022/01/13 02:33:47;;;;;;;33.60;26.07;;;1.90;99.90;;;;;;4994795;28;20196;-59
2022/01/13 02:36:16;;;;;;;35.77;28.37;;;1.80;99.90;;;;;;4994850;28;20399;-58
2022/01/13 02:38:46;;;;;;;32.20;25.77;;;1.80;99.90;;;;;;4995568;28;20457;-59
2022/01/13 02:41:11;;;;;;;34.90;28.57;;;2.00;99.90;;;;;;4994730;28;20423;-60
2022/01/13 02:43:37;;;;;;;34.70;26.73;;;2.10;99.90;;;;;;4994781;28;20414;-60
2022/01/13 02:46:56;;;;;;;33.10;25.20;;;2.10;99.90;;;;;;4994446;28;20176;-60
2022/01/13 02:49:24;;;;;;;32.80;27.23;;;2.30;99.90;;;;;;5011459;28;20702;-61
2022/01/13 02:51:52;;;;;;;32.70;26.00;;;2.40;99.90;;;;;;5013491;28;20426;-60
2022/01/13 02:54:18;;;;;;;33.53;26.37;;;2.40;99.90;;;;;;5003797;28;21088;-60
2022/01/13 02:56:45;;;;;;;31.57;26.37;;;2.30;99.90;;;;;;4994287;28;20466;-60
2022/01/13 02:59:12;;;;;;;36.27;25.93;;;2.40;99.90;;;;;;4993204;28;20396;-60
2022/01/13 03:01:39;;;;;;;34.90;26.50;;;2.40;99.90;;;;;;4994058;28;20441;-60
2022/01/13 03:04:07;;;;;;;34.20;27.00;;;2.40;99.90;;;;;;4994587;28;20407;-60
2022/01/13 03:06:38;;;;;;;34.30;26.37;;;2.40;99.90;;;;;;4994355;28;20822;-60
2022/01/13 03:09:10;;;;;;;37.23;28.93;;;2.30;99.90;;;;;;4994572;28;20393;-58
2022/01/13 03:11:37;;;;;;;33.80;25.50;;;2.20;99.90;;;;;;4994400;28;20433;-59
2022/01/13 03:14:05;;;;;;;34.30;27.10;;;2.30;99.90;;;;;;4994295;28;20450;-60
2022/01/13 03:16:31;;;;;;;30.87;25.27;;;2.30;99.90;;;;;;4993834;28;20784;-61
2022/01/13 03:18:57;;;;;;;30.97;25.67;;;2.20;99.90;;;;;;5008437;28;20417;-61
2022/01/13 03:21:22;;;;;;;36.27;28.17;;;2.30;99.90;;;;;;5010888;28;20188;-61
2022/01/13 03:23:49;;;;;;;35.37;28.17;;;2.30;99.90;;;;;;4989722;28;20409;-61
2022/01/13 03:26:15;;;;;;;36.13;28.20;;;2.00;99.90;;;;;;4974775;28;20227;-60
2022/01/13 03:29:05;;;;;;;34.73;27.47;;;1.90;99.90;;;;;;4972894;28;20531;-61
2022/01/13 03:31:31;;;;;;;34.80;26.77;;;2.10;99.90;;;;;;4974052;28;20280;-61
2022/01/13 03:33:56;;;;;;;32.23;26.80;;;2.10;99.90;;;;;;4974341;28;20460;-61
2022/01/13 03:36:22;;;;;;;32.47;25.40;;;2.10;99.90;;;;;;4974422;28;20170;-61
2022/01/13 03:38:48;;;;;;;35.50;27.27;;;2.10;99.90;;;;;;4974350;28;20169;-60
2022/01/13 03:41:14;;;;;;;35.43;28.30;;;2.10;99.90;;;;;;4974223;28;20192;-59
2022/01/13 03:43:40;;;;;;;29.70;25.17;;;2.10;99.90;;;;;;4974591;28;20256;-60
2022/01/13 03:46:06;;;;;;;33.27;26.97;;;2.30;99.90;;;;;;4974023;28;20437;-61
2022/01/13 03:48:32;;;;;;;32.37;25.50;;;2.30;99.90;;;;;;4995997;28;20179;-62
2022/01/13 03:50:57;;;;;;;33.00;25.37;;;2.30;99.90;;;;;;5012427;28;20506;-61
2022/01/13 03:53:29;;;;;;;30.40;26.00;;;2.40;99.90;;;;;;5013794;28;20498;-60
2022/01/13 03:56:16;;;;;;;30.00;24.33;;;2.50;99.90;;;;;;5013479;28;20171;-60
2022/01/13 03:59:35;;;;;;;36.13;27.47;;;2.60;99.90;;;;;;5013213;28;20389;-61
2022/01/13 04:02:10;;;;;;;33.83;26.37;;;2.60;99.90;;;;;;5012755;28;20519;-60
2022/01/13 04:04:47;;;;;;;31.93;25.37;;;2.60;99.90;;;;;;5013678;28;20383;-61
2022/01/13 04:07:20;;;;;;;29.93;25.23;;;2.70;99.90;;;;;;5013164;28;20499;-60
2022/01/13 04:09:45;;;;;;;31.13;26.23;;;2.70;99.90;;;;;;5013777;28;20414;-60
2022/01/13 04:12:13;;;;;;;34.07;26.90;;;2.70;99.90;;;;;;5013419;28;20414;-59
2022/01/13 04:17:15;;;;;;;33.00;25.90;;;2.70;99.90;;;;;;5013618;28;20930;-59
2022/01/13 04:19:42;;;;;;;31.90;25.33;;;2.80;99.90;;;;;;5013429;28;20394;-59
2022/01/13 04:22:09;;;;;;;32.77;25.33;;;2.80;99.90;;;;;;5013159;28;20490;-61
2022/01/13 04:24:38;;;;;;;29.67;25.60;;;2.70;99.90;;;;;;5013197;28;20402;-61
2022/01/13 04:27:05;;;;;;;30.10;25.70;;;2.80;99.90;;;;;;5012851;28;20415;-61
2022/01/13 04:29:37;;;;;;;30.27;26.00;;;2.80;99.90;;;;;;5012986;28;20541;-61
2022/01/13 04:32:05;;;;;;;32.37;25.97;;;2.70;99.90;;;;;;5007240;28;20513;-59
2022/01/13 04:34:31;;;;;;;30.23;25.20;;;2.60;99.90;;;;;;4993686;28;20956;-61
2022/01/13 04:36:58;;;;;;;29.53;24.23;;;2.50;99.90;;;;;;4993283;28;20907;-60
2022/01/13 04:39:25;;;;;;;31.37;26.47;;;2.50;99.90;;;;;;4993431;28;20483;-58
2022/01/13 04:41:52;;;;;;;37.10;27.20;;;2.50;99.90;;;;;;4996051;28;21003;-61
2022/01/13 04:44:20;;;;;;;35.53;28.60;;;2.40;99.90;;;;;;4997227;28;20490;-59
2022/01/13 04:46:48;;;;;;;30.20;24.00;;;2.50;99.90;;;;;;4996632;28;20430;-61
2022/01/13 04:49:14;;;;;;;30.57;24.17;;;2.50;99.90;;;;;;5012330;28;20422;-61
2022/01/13 04:51:41;;;;;;;31.77;25.97;;;2.50;99.90;;;;;;5016253;28;20429;-61
2022/01/13 04:54:08;;;;;;;28.93;25.40;;;2.50;99.90;;;;;;5017349;28;20462;-60
2022/01/13 04:56:44;;;;;;;33.93;26.30;;;2.60;99.90;;;;;;5015034;28;20411;-59
2022/01/13 04:59:11;;;;;;;32.43;26.00;;;2.60;99.90;;;;;;5016255;28;20884;-61
2022/01/13 05:01:38;;;;;;;28.73;23.97;;;2.70;99.90;;;;;;5015182;28;20512;-61
2022/01/13 05:04:05;;;;;;;35.63;27.00;;;2.40;99.90;;;;;;5016185;28;20407;-57
2022/01/13 05:06:30;;;;;;;33.70;26.47;;;2.40;99.90;;;;;;5015922;28;20449;-61
2022/01/13 05:08:56;;;;;;;27.50;23.37;;;2.30;99.90;;;;;;5014838;28;20506;-60
2022/01/13 05:11:22;;;;;;;28.93;24.90;;;2.40;99.90;;;;;;5016129;28;20198;-59
2022/01/13 05:13:48;;;;;;;29.67;23.97;;;2.40;99.90;;;;;;5016264;28;20667;-60
2022/01/13 05:16:21;;;;;;;27.40;22.57;;;2.50;99.90;;;;;;5017196;28;20489;-61
2022/01/13 05:19:09;;;;;;;29.13;23.70;;;2.50;99.90;;;;;;5017568;28;20379;-61
2022/01/13 05:24:17;;;;;;;26.50;22.67;;;2.60;99.90;;;;;;5015653;28;20433;-61
2022/01/13 05:26:42;;;;;;;29.00;23.33;;;2.60;99.90;;;;;;5015958;28;21118;-60
2022/01/13 05:29:09;;;;;;;26.73;23.57;;;2.70;99.90;;;;;;5015944;28;20187;-58
2022/01/13 05:31:35;;;;;;;32.77;25.93;;;2.60;99.90;;;;;;4990647;28;20212;-60
2022/01/13 05:34:00;;;;;;;33.23;26.87;;;2.50;99.90;;;;;;4994214;28;20466;-61
2022/01/13 05:36:26;;;;;;;27.87;23.10;;;2.50;99.90;;;;;;4996470;28;20704;-59
2022/01/13 05:38:51;;;;;;;30.33;24.30;;;2.50;99.90;;;;;;4995103;28;20180;-60
2022/01/13 05:41:17;;;;;;;29.67;24.60;;;2.50;99.90;;;;;;4995814;28;20263;-56
2022/01/13 05:43:43;;;;;;;28.97;23.57;;;2.60;99.90;;;;;;4995834;28;20281;-60
2022/01/13 05:46:08;;;;;;;29.30;23.73;;;2.60;99.90;;;;;;4996060;28;20173;-56
2022/01/13 05:48:34;;;;;;;28.60;23.00;;;2.50;99.90;;;;;;4995779;28;20200;-58
2022/01/13 05:51:00;;;;;;;31.53;24.70;;;2.50;99.90;;;;;;4995574;28;20192;-56
2022/01/13 05:53:26;;;;;;;33.50;24.93;;;2.40;99.90;;;;;;5012134;28;20623;-57
2022/01/13 05:55:51;;;;;;;26.73;23.43;;;2.40;99.90;;;;;;5015512;28;20450;-58
2022/01/13 05:58:17;;;;;;;26.77;23.10;;;2.40;99.90;;;;;;5014899;28;20156;-59
2022/01/13 06:00:43;;;;;;;33.30;25.13;;;2.50;99.90;;;;;;5013832;28;20168;-59
2022/01/13 06:03:10;;;;;;;29.20;23.97;;;2.50;99.90;;;;;;5015397;28;20250;-58
2022/01/13 06:05:37;;;;;;;31.63;25.63;;;2.40;99.90;;;;;;5014394;28;20192;-57
2022/01/13 06:08:03;;;;;;;34.17;24.70;;;2.30;99.90;;;;;;5015263;28;20422;-60
2022/01/13 06:10:29;;;;;;;26.17;23.37;;;2.30;99.90;;;;;;5015186;28;20522;-59
2022/01/13 06:12:54;;;;;;;31.43;25.63;;;2.20;99.90;;;;;;5013760;28;20494;-57
2022/01/13 06:15:22;;;;;;;27.67;22.37;;;2.20;99.90;;;;;;5002938;28;20192;-61
2022/01/13 06:17:51;;;;;;;27.57;23.90;;;2.40;99.90;;;;;;4995473;28;20175;-61
2022/01/13 06:20:18;;;;;;;32.77;26.20;;;2.50;99.90;;;;;;4995129;28;20415;-61
2022/01/13 06:22:46;;;;;;;28.90;21.43;;;2.50;99.90;;;;;;5010507;28;20445;-61
2022/01/13 06:25:12;;;;;;;28.07;24.87;;;2.60;99.90;;;;;;5012745;28;20818;-61
2022/01/13 06:27:39;;;;;;;27.53;23.37;;;2.50;99.90;;;;;;4994624;28;20416;-61
2022/01/13 06:30:07;;;;;;;29.30;24.13;;;2.50;99.90;;;;;;4994993;28;20414;-61
2022/01/13 06:32:33;;;;;;;30.87;24.50;;;2.50;99.90;;;;;;4994711;28;20462;-61
2022/01/13 06:34:58;;;;;;;31.97;25.47;;;2.40;99.90;;;;;;5009772;28;20455;-61
2022/01/13 06:37:24;;;;;;;34.80;26.40;;;2.40;99.90;;;;;;4995010;28;20232;-61
2022/01/13 06:39:49;;;;;;;30.50;24.93;;;2.50;99.90;;;;;;4993373;28;20164;-61
2022/01/13 06:42:17;;;;;;;33.70;26.10;;;2.60;99.90;;;;;;4994350;28;20692;-61
2022/01/13 06:44:43;;;;;;;31.07;24.97;;;2.40;99.90;;;;;;4995070;28;20638;-60
2022/01/13 06:47:09;;;;;;;26.87;23.13;;;2.50;99.90;;;;;;4994750;28;20404;-60
2022/01/13 06:49:35;;;;;;;29.30;22.67;;;2.40;99.90;;;;;;4994856;28;20892;-60
2022/01/13 06:52:02;;;;;;;25.20;21.97;;;2.20;99.90;;;;;;5004842;28;20249;-60
2022/01/13 06:54:27;;;;;;;31.73;25.17;;;2.00;99.90;;;;;;5014306;28;20443;-60
2022/01/13 06:56:53;;;;;;;29.53;25.37;;;2.10;99.90;;;;;;5013852;28;20417;-60
2022/01/13 06:59:20;;;;;;;28.17;24.73;;;2.00;99.90;;;;;;5014042;28;20172;-61
2022/01/13 07:01:46;;;;;;;32.70;25.00;;;2.10;99.90;;;;;;5014102;28;20196;-59
2022/01/13 07:04:13;;;;;;;29.17;23.87;;;2.10;99.90;;;;;;5013312;28;20940;-61
2022/01/13 07:06:40;;;;;;;30.10;24.60;;;2.20;99.90;;;;;;5014441;28;20869;-60
2022/01/13 07:09:09;;;;;;;27.63;22.60;;;2.20;99.90;;;;;;5013980;28;20415;-61
2022/01/13 07:11:35;;;;;;;29.87;26.20;;;2.10;99.90;;;;;;5013601;28;20435;-61
2022/01/13 07:14:01;;;;;;;29.90;23.30;;;1.90;99.90;;;;;;5013827;28;20664;-61
2022/01/13 07:16:27;;;;;;;32.40;27.30;;;1.90;99.90;;;;;;5013890;28;20402;-60
2022/01/13 07:18:53;;;;;;;33.17;26.83;;;1.70;99.90;;;;;;5013639;28;20894;-60
2022/01/13 07:21:21;;;;;;;29.00;24.60;;;1.80;99.90;;;;;;5013590;28;20328;-60
2022/01/13 07:23:47;;;;;;;35.07;26.57;;;1.80;99.90;;;;;;5014056;28;20407;-60
2022/01/13 07:26:13;;;;;;;32.70;27.40;;;1.90;99.90;;;;;;5013620;28;20407;-61
2022/01/13 07:28:39;;;;;;;33.07;27.80;;;2.00;99.90;;;;;;5014070;28;20454;-60
2022/01/13 07:31:04;;;;;;;31.90;26.27;;;2.10;99.90;;;;;;5037982;23;20295;-63
2022/01/13 07:33:30;;;;;;;35.50;26.73;;;2.10;99.90;;;;;;5047301;28;20195;-63
2022/01/13 07:35:56;;;;;;;31.97;25.30;;;2.20;99.90;;;;;;5032071;28;20633;-63
2022/01/13 07:38:21;;;;;;;31.90;24.37;;;2.20;99.90;;;;;;5033361;28;20222;-64
2022/01/13 07:40:48;;;;;;;26.70;23.80;;;2.20;99.90;;;;;;5032626;28;20176;-62
2022/01/13 07:43:16;;;;;;;31.90;25.83;;;2.30;99.90;;;;;;5033259;28;20609;-64
2022/01/13 07:45:42;;;;;;;32.87;27.27;;;2.40;99.90;;;;;;5033328;28;20783;-63
2022/01/13 07:48:08;;;;;;;28.43;23.10;;;2.30;99.90;;;;;;5033212;28;20430;-61
2022/01/13 07:50:34;;;;;;;31.70;24.83;;;2.30;99.90;;;;;;5033183;28;20413;-62
2022/01/13 07:53:00;;;;;;;28.03;23.50;;;2.30;99.90;;;;;;5032918;28;20444;-61
2022/01/13 07:55:26;;;;;;;27.00;23.60;;;2.30;99.90;;;;;;5032746;28;20197;-62
2022/01/13 07:57:51;;;;;;;32.70;25.83;;;2.20;99.90;;;;;;5032531;28;20651;-63
2022/01/13 08:00:17;;;;;;;30.00;24.77;;;2.20;99.90;;;;;;5033405;28;20405;-61
2022/01/13 08:02:43;;;;;;;31.83;25.17;;;2.30;99.90;;;;;;5033844;28;20270;-61
2022/01/13 08:05:09;;;;;;;36.20;27.53;;;2.00;99.90;;;;;;5032696;28;20233;-61
2022/01/13 08:07:35;;;;;;;31.97;26.53;;;2.00;99.90;;;;;;5034294;28;20171;-61
2022/01/13 08:10:00;;;;;;;31.10;24.10;;;2.10;99.90;;;;;;5034104;28;20749;-61
2022/01/13 08:12:26;;;;;;;29.87;23.80;;;2.00;99.90;;;;;;5031823;28;20286;-61
2022/01/13 08:14:52;;;;;;;31.20;26.10;;;2.10;99.90;;;;;;5033187;28;20690;-62
2022/01/13 08:19:45;;;;;;;30.90;26.63;;;2.10;99.90;;;;;;5037118;28;20414;-62
2022/01/13 08:20:04;;;;;;;32.10;25.00;;;2.20;99.90;;;;;;5036861;28;20562;-62
2022/01/13 08:22:30;;;;;;;25.43;21.10;;;2.20;99.90;;;;;;5036115;28;20425;-61
2022/01/13 08:24:55;;;;;;;28.63;23.60;;;2.30;99.90;;;;;;5037191;28;20463;-63
2022/01/13 08:27:21;;;;;;;29.40;22.37;;;2.10;99.90;;;;;;5036576;28;20252;-63
2022/01/13 08:29:47;;;;;;;29.67;22.17;;;2.00;99.90;;;;;;5036944;28;20175;-60
2022/01/13 08:32:13;;;;;;;27.10;21.77;;;2.20;99.90;;;;;;5036721;28;20217;-60
2022/01/13 08:34:38;;;;;;;29.33;22.20;;;2.20;99.90;;;;;;5036653;28;20610;-62
2022/01/13 08:37:04;;;;;;;28.23;21.77;;;2.30;99.90;;;;;;5036986;28;20459;-61
2022/01/13 08:39:32;;;;;;;22.93;19.03;;;2.30;99.90;;;;;;5036662;28;20549;-62
2022/01/13 08:41:57;;;;;;;25.20;20.33;;;2.50;99.90;;;;;;5036333;28;20274;-62
2022/01/13 08:44:23;;;;;;;25.17;20.50;;;2.60;99.90;;;;;;5036328;28;20495;-61
2022/01/13 08:46:48;;;;;;;28.63;20.67;;;2.80;99.90;;;;;;5036895;28;20585;-61
2022/01/13 08:49:15;;;;;;;26.73;22.07;;;2.80;99.90;;;;;;5035670;28;20179;-62
2022/01/13 08:51:40;;;;;;;27.00;20.07;;;2.70;99.90;;;;;;5036371;28;20223;-62
2022/01/13 08:54:06;;;;;;;22.40;19.60;;;2.70;99.90;;;;;;5036083;28;20488;-62
2022/01/13 08:56:32;;;;;;;28.10;21.50;;;2.30;99.90;;;;;;5036108;28;20179;-62
2022/01/13 08:58:57;;;;;;;26.03;22.10;;;2.20;99.90;;;;;;5036265;28;20476;-62
2022/01/13 09:01:23;;;;;;;27.17;20.70;;;2.10;99.90;;;;;;5035058;28;20198;-61
2022/01/13 09:03:48;;;;;;;24.63;19.53;;;1.90;99.90;;;;;;5036313;28;20179;-63
2022/01/13 09:06:14;;;;;;;24.00;20.17;;;2.10;99.90;;;;;;5035379;28;20175;-63
2022/01/13 09:08:40;;;;;;;24.60;21.00;;;2.20;99.90;;;;;;5034973;28;20179;-62
2022/01/13 09:11:06;;;;;;;26.57;21.00;;;2.50;99.90;;;;;;5035614;28;20187;-62
2022/01/13 09:13:36;;;;;;;29.03;21.00;;;2.50;99.90;;;;;;5035716;28;20421;-61
2022/01/13 09:16:04;;;;;;;25.33;19.20;;;2.20;99.90;;;;;;5035708;28;20534;-62
2022/01/13 09:18:46;;;;;;;24.13;18.23;;;2.20;99.90;;;;;;5035735;28;20402;-62
2022/01/13 09:21:13;;;;;;;19.93;15.93;;;2.10;99.90;;;;;;5035707;28;20398;-62
2022/01/13 09:23:39;;;;;;;26.63;17.87;;;2.10;99.90;;;;;;5035697;28;20467;-61
2022/01/13 09:26:06;;;;;;;23.37;19.40;;;2.30;99.90;;;;;;5034973;28;20945;-61
2022/01/13 09:28:32;;;;;;;26.07;19.30;;;2.30;99.90;;;;;;5034400;28;20508;-60
2022/01/13 09:30:58;;;;;;;28.40;19.63;;;2.30;99.90;;;;;;5035442;28;20957;-62
2022/01/13 09:33:25;;;;;;;27.57;20.60;;;2.30;99.90;;;;;;5035113;28;20488;-62
2022/01/13 09:35:50;;;;;;;22.40;18.33;;;2.20;99.90;;;;;;5035212;28;20417;-63
2022/01/13 09:38:16;;;;;;;27.67;20.87;;;2.30;99.90;;;;;;5035155;28;20402;-60
2022/01/13 09:40:45;;;;;;;26.00;21.70;;;2.40;99.90;;;;;;5035211;28;20514;-62
2022/01/13 09:43:11;;;;;;;23.80;19.20;;;2.40;99.90;;;;;;5035092;28;20741;-63
2022/01/13 09:45:37;;;;;;;28.73;22.60;;;2.50;99.90;;;;;;5033688;28;20445;-63
2022/01/13 09:48:03;;;;;;;23.57;18.43;;;2.70;99.90;;;;;;5035711;28;20410;-62
2022/01/13 09:50:29;;;;;;;26.70;21.90;;;2.50;99.90;;;;;;5035896;28;20410;-62
2022/01/13 09:52:55;;;;;;;26.83;22.37;;;2.40;99.90;;;;;;5035131;28;20433;-60
2022/01/13 09:55:20;;;;;;;24.33;21.07;;;2.40;99.90;;;;;;5035113;28;20552;-62
2022/01/13 09:57:50;;;;;;;25.13;20.93;;;2.40;99.90;;;;;;5034542;28;20182;-62
2022/01/13 10:00:19;;;;;;;24.30;19.23;;;2.40;99.90;;;;;;5034278;28;20663;-61
2022/01/13 10:02:45;;;;;;;25.77;20.63;;;2.50;99.90;;;;;;5034928;28;20502;-63
2022/01/13 10:05:11;;;;;;;25.70;21.20;;;2.40;99.90;;;;;;5035004;28;20926;-62
2022/01/13 10:07:41;;;;;;;25.43;20.97;;;2.50;99.90;;;;;;5034862;28;20241;-60
2022/01/13 10:10:16;;;;;;;25.07;20.77;;;2.70;99.90;;;;;;5035235;28;20410;-61
2022/01/13 10:12:44;;;;;;;25.70;19.70;;;2.90;99.90;;;;;;5034718;28;20956;-58
2022/01/13 10:17:49;;;;;;;25.63;19.73;;;3.30;99.90;;;;;;5034885;28;20414;-61
2022/01/13 10:20:17;;;;;;;21.90;17.50;;;3.20;99.90;;;;;;5034679;28;20390;-61
2022/01/13 10:22:42;;;;;;;22.47;18.77;;;3.40;99.90;;;;;;5034856;28;20438;-61
2022/01/13 10:25:31;;;;;;;23.90;19.07;;;3.50;99.90;;;;;;5034750;28;20509;-59
2022/01/13 10:28:16;;;;;;;23.80;18.77;;;3.40;99.90;;;;;;5034617;28;20183;-60
2022/01/13 10:30:44;;;;;;;21.93;17.90;;;3.20;99.90;;;;;;5034228;28;20436;-59
2022/01/13 10:33:22;;;;;;;25.67;19.93;;;3.10;99.90;;;;;;5033844;28;20535;-59
2022/01/13 10:35:50;;;;;;;25.97;17.27;;;3.40;99.90;;;;;;5034807;28;20449;-62
2022/01/13 10:38:17;;;;;;;23.93;19.20;;;3.30;99.90;;;;;;5032162;28;20468;-61
2022/01/13 10:40:48;;;;;;;22.33;17.90;;;3.40;99.90;;;;;;5034286;28;20402;-61
2022/01/13 10:43:24;;;;;;;22.17;17.80;;;3.50;99.90;;;;;;5034109;28;20860;-61
2022/01/13 10:45:53;;;;;;;21.90;17.70;;;3.50;99.90;;;;;;5033899;28;20398;-61
2022/01/13 10:48:27;;;;;;;25.10;18.43;;;3.60;99.90;;;;;;5033761;28;20918;-62
2022/01/13 10:51:04;;;;;;;21.83;17.87;;;3.80;99.90;;;;;;5033845;28;20409;-60
2022/01/13 10:53:38;;;;;;;23.80;18.90;;;3.70;99.90;;;;;;5033752;28;20413;-62
2022/01/13 10:56:07;;;;;;;23.70;18.50;;;3.70;99.90;;;;;;5033365;28;20449;-61
2022/01/13 10:58:50;;;;;;;20.70;17.87;;;3.80;99.90;;;;;;5033325;28;20410;-60
2022/01/13 11:01:16;;;;;;;23.83;18.90;;;3.90;99.90;;;;;;5033839;28;20399;-61
2022/01/13 11:03:43;;;;;;;24.80;18.00;;;3.80;99.90;;;;;;5033859;28;20407;-62
2022/01/13 11:06:10;;;;;;;21.23;17.63;;;4.00;99.90;;;;;;5033973;28;20195;-61
2022/01/13 11:08:45;;;;;;;18.40;16.23;;;4.40;99.90;;;;;;5033128;28;20417;-62
2022/01/13 11:11:21;;;;;;;18.50;14.30;;;5.60;99.90;;;;;;5033645;28;20397;-61
2022/01/13 11:13:56;;;;;;;18.30;15.03;;;7.50;99.90;;;;;;5032685;28;20813;-62
2022/01/13 11:16:24;;;;;;;20.53;17.10;;;9.70;99.90;;;;;;5033747;28;20416;-62
2022/01/13 11:18:51;;;;;;;17.03;15.07;;;10.90;99.00;;;;;;5033707;28;20410;-62
2022/01/13 11:21:17;;;;;;;18.40;15.67;;;12.20;96.10;;;;;;5032939;28;20418;-62
2022/01/13 11:23:47;;;;;;;16.30;14.10;;;12.90;93.80;;;;;;5033695;28;20459;-62
2022/01/13 11:26:14;;;;;;;16.40;14.10;;;13.90;91.70;;;;;;5033372;28;20508;-61
2022/01/13 11:28:40;;;;;;;15.90;14.27;;;12.90;91.50;;;;;;5032937;28;20410;-61
2022/01/13 11:31:11;;;;;;;17.20;15.47;;;12.40;92.10;;;;;;5033298;28;20417;-62
2022/01/13 11:33:38;;;;;;;15.00;13.43;;;11.50;93.30;;;;;;5033634;28;20400;-63
2022/01/13 11:36:06;;;;;;;16.43;13.70;;;12.80;92.90;;;;;;5033410;28;20398;-63
2022/01/13 11:38:32;;;;;;;16.10;14.40;;;13.70;90.30;;;;;;5032243;28;20406;-63
2022/01/13 11:41:02;;;;;;;17.63;15.73;;;14.10;90.40;;;;;;5033348;28;20484;-62
2022/01/13 11:43:37;;;;;;;16.50;14.53;;;15.20;86.30;;;;;;5033375;28;20399;-62
2022/01/13 11:46:24;;;;;;;16.90;15.13;;;15.30;83.50;;;;;;5033355;28;20385;-62
2022/01/13 11:49:09;;;;;;;16.57;14.77;;;15.90;82.70;;;;;;5033568;28;20413;-62
2022/01/13 11:51:55;;;;;;;18.53;15.50;;;16.90;78.40;;;;;;5033038;28;20501;-63
2022/01/13 11:54:25;;;;;;;17.87;16.07;;;15.40;76.90;;;;;;5032495;28;20516;-62
2022/01/13 11:57:14;;;;;;;17.30;15.50;;;14.30;81.40;;;;;;5031352;28;20421;-61
2022/01/13 11:59:46;;;;;;;16.53;14.83;;;15.00;80.60;;;;;;5032310;28;20386;-62
2022/01/13 12:02:25;;;;;;;16.43;14.70;;;16.10;78.90;;;;;;5032327;28;20460;-63
2022/01/13 12:05:14;;;;;;;18.43;15.40;;;15.90;76.20;;;;;;5033275;28;20494;-63
2022/01/13 12:07:44;;;;;;;16.37;14.80;;;16.30;76.20;;;;;;5032784;28;20468;-63
2022/01/13 12:10:33;;;;;;;17.80;16.00;;;16.60;74.80;;;;;;5033987;28;20417;-61
2022/01/13 12:12:58;;;;;;;16.03;14.43;;;16.20;74.50;;;;;;5023099;28;20532;-64
2022/01/13 12:15:26;;;;;;;17.60;15.97;;;16.60;74.50;;;;;;5032056;28;20546;-62
2022/01/13 12:18:04;;;;;;;16.57;14.87;;;16.80;73.90;;;;;;5032730;28;20639;-62
2022/01/13 12:20:49;;;;;;;18.63;16.73;;;18.30;71.50;;;;;;5032680;28;20425;-62
2022/01/13 12:23:43;;;;;;;17.40;15.60;;;17.50;68.80;;;;;;5014575;28;20430;-62
2022/01/13 12:26:29;;;;;;;17.40;15.63;;;17.70;69.70;;;;;;5026939;28;20413;-61
2022/01/13 12:29:15;;;;;;;17.17;13.57;;;18.40;67.60;;;;;;5032936;28;20406;-62
2022/01/13 12:31:53;;;;;;;15.90;14.37;;;19.10;66.20;;;;;;5033009;28;20495;-61
2022/01/13 12:34:20;;;;;;;16.07;14.53;;;19.60;64.30;;;;;;5032741;28;20536;-63
2022/01/13 12:36:46;;;;;;;14.60;13.00;;;20.10;62.40;;;;;;5032825;28;20411;-62
2022/01/13 12:39:15;;;;;;;15.80;14.27;;;20.50;61.10;;;;;;5032653;28;20448;-62
2022/01/13 12:41:57;;;;;;;14.47;13.27;;;21.00;60.00;;;;;;5032446;28;20530;-62
2022/01/13 12:45:28;;;;;;;16.60;15.00;;;21.10;58.30;;;;;;5032919;28;20391;-62
2022/01/13 12:47:10;;;;;;;15.43;13.97;;;19.40;58.30;;;;;;5032554;28;20422;-62
2022/01/13 12:49:37;;;;;;;15.83;14.23;;;17.50;61.60;;;;;;5031897;28;20503;-62
2022/01/13 12:52:03;;;;;;;18.80;17.10;;;;;;;;;;5032335;28;20450;-62
2022/01/13 12:54:29;;;;;;;15.67;13.97;;;;;;;;;;5032756;28;20450;-57
2022/01/13 12:56:55;;;;;;;15.13;13.80;;;;;;;;;;5032475;28;20399;-59
2022/01/13 12:59:22;;;;;;;19.23;15.53;;;;;;;;;;5032390;28;20394;-60
2022/01/13 13:01:49;;;;;;;17.00;15.30;;;;;;;;;;5033659;28;20949;-57
2022/01/13 13:04:15;;;;;;;15.93;14.23;;;;;;;;;;5035933;28;20404;-61
2022/01/13 13:06:46;;;;;;;16.43;14.77;;;;;;;;;;5036061;28;20449;-60
2022/01/13 13:09:13;;;;;;;19.80;15.87;;;;;;;;;;5035658;28;20407;-61
2022/01/13 13:11:41;;;;;;;16.80;14.10;;;;;;;;;;5034631;28;20768;-61